sensor_id;sensor_type;location;lat;lon;timestamp;P1;P4;P2;P0;N10;N4;N25;N1;N05;TS
42106;SPS30;27764;50.278;19.032;2023-03-23T00:00:39;14;;14;;;;;;;
42106;SPS30;27764;50.278;19.032;2023-03-23T00:04:24;13;;13;;;;;;;
42106;SPS30;27764;50.278;19.032;2023-03-23T00:07:42;14;;14;;;;;;;
42106;SPS30;27764;50.278;19.032;2023-03-23T00:10:58;13;;13;;;;;;;
42106;SPS30;27764;50.278;19.032;2023-03-23T00:14:14;11;;11;;;;;;;
42106;SPS30;27764;50.278;19.032;2023-03-23T00:18:20;14;;14;;;;;;;
42106;SPS30;27764;50.278;19.032;2023-03-23T00:21:36;13;;13;;;;;;;
42106;SPS30;27764;50.278;19.032;2023-03-23T00:24:51;14;;14;;;;;;;
42106;SPS30;27764;50.278;19.032;2023-03-23T00:28:05;14;;14;;;;;;;
42106;SPS30;27764;50.278;19.032;2023-03-23T05:34:34;11;;11;;;;;;;
42106;SPS30;27764;50.278;19.032;2023-03-23T05:37:48;10;;10;;;;;;;
42106;SPS30;27764;50.278;19.032;2023-03-23T05:41:02;8;;8;;;;;;;
42106;SPS30;27764;50.278;19.032;2023-03-23T05:44:16;8;;8;;;;;;;
42106;SPS30;27764;50.278;19.032;2023-03-23T05:48:06;10;;10;;;;;;;
42106;SPS30;27764;50.278;19.032;2023-03-23T05:51:22;10;;10;;;;;;;
42106;SPS30;27764;50.278;19.032;2023-03-23T05:54:36;10;;10;;;;;;;
42106;SPS30;27764;50.278;19.032;2023-03-23T05:57:50;9;;9;;;;;;;
42106;SPS30;27764;50.278;19.032;2023-03-23T06:01:07;8;;8;;;;;;;
42106;SPS30;27764;50.278;19.032;2023-03-23T06:04:52;9;;9;;;;;;;
42106;SPS30;27764;50.278;19.032;2023-03-23T06:08:11;8;;8;;;;;;;
42106;SPS30;27764;50.278;19.032;2023-03-23T06:11:26;7;;7;;;;;;;
42106;SPS30;27764;50.278;19.032;2023-03-23T06:14:40;9;;9;;;;;;;
42106;SPS30;27764;50.278;19.032;2023-03-23T06:18:42;9;;9;;;;;;;
42106;SPS30;27764;50.278;19.032;2023-03-23T06:21:56;6;;6;;;;;;;
42106;SPS30;27764;50.278;19.032;2023-03-23T06:25:10;7;;7;;;;;;;
42106;SPS30;27764;50.278;19.032;2023-03-23T06:28:24;8;;8;;;;;;;
42106;SPS30;27764;50.278;19.032;2023-03-23T06:31:49;8;;8;;;;;;;
42106;SPS30;27764;50.278;19.032;2023-03-23T06:35:36;8;;8;;;;;;;
42106;SPS30;27764;50.278;19.032;2023-03-23T06:38:50;8;;8;;;;;;;
42106;SPS30;27764;50.278;19.032;2023-03-23T06:42:04;8;;8;;;;;;;
42106;SPS30;27764;50.278;19.032;2023-03-23T06:45:22;8;;8;;;;;;;
42106;SPS30;27764;50.278;19.032;2023-03-23T06:48:35;7;;7;;;;;;;
42106;SPS30;27764;50.278;19.032;2023-03-23T06:52:23;8;;8;;;;;;;
42106;SPS30;27764;50.278;19.032;2023-03-23T06:55:38;8;;8;;;;;;;
42106;SPS30;27764;50.278;19.032;2023-03-23T06:58:53;8;;8;;;;;;;
42106;SPS30;27764;50.278;19.032;2023-03-23T07:02:08;7;;7;;;;;;;
42106;SPS30;27764;50.278;19.032;2023-03-23T07:05:24;9;;9;;;;;;;
42106;SPS30;27764;50.278;19.032;2023-03-23T07:09:09;7;;7;;;;;;;
42106;SPS30;27764;50.278;19.032;2023-03-23T07:12:24;7;;7;;;;;;;
42106;SPS30;27764;50.278;19.032;2023-03-23T07:15:38;7;;7;;;;;;;
42106;SPS30;27764;50.278;19.032;2023-03-23T07:18:53;7;;7;;;;;;;
42106;SPS30;27764;50.278;19.032;2023-03-23T07:22:07;8;;8;;;;;;;
42106;SPS30;27764;50.278;19.032;2023-03-23T07:25:54;8;;8;;;;;;;
42106;SPS30;27764;50.278;19.032;2023-03-23T07:29:08;9;;9;;;;;;;
42106;SPS30;27764;50.278;19.032;2023-03-23T07:32:23;9;;9;;;;;;;
42106;SPS30;27764;50.278;19.032;2023-03-23T07:35:37;9;;9;;;;;;;
42106;SPS30;27764;50.278;19.032;2023-03-23T07:38:52;9;;9;;;;;;;
42106;SPS30;27764;50.278;19.032;2023-03-23T07:42:35;8;;8;;;;;;;
42106;SPS30;27764;50.278;19.032;2023-03-23T07:45:49;7;;7;;;;;;;
42106;SPS30;27764;50.278;19.032;2023-03-23T07:49:03;9;;9;;;;;;;
42106;SPS30;27764;50.278;19.032;2023-03-23T07:52:18;8;;8;;;;;;;
42106;SPS30;27764;50.278;19.032;2023-03-23T07:55:34;8;;8;;;;;;;
42106;SPS30;27764;50.278;19.032;2023-03-23T07:59:28;8;;8;;;;;;;
42106;SPS30;27764;50.278;19.032;2023-03-23T08:02:42;8;;8;;;;;;;
42106;SPS30;27764;50.278;19.032;2023-03-23T08:05:57;7;;7;;;;;;;
42106;SPS30;27764;50.278;19.032;2023-03-23T08:09:12;9;;9;;;;;;;
42106;SPS30;27764;50.278;19.032;2023-03-23T08:12:26;8;;8;;;;;;;
42106;SPS30;27764;50.278;19.032;2023-03-23T08:16:12;7;;7;;;;;;;
42106;SPS30;27764;50.278;19.032;2023-03-23T08:19:26;8;;8;;;;;;;
42106;SPS30;27764;50.278;19.032;2023-03-23T08:22:41;7;;7;;;;;;;
42106;SPS30;27764;50.278;19.032;2023-03-23T08:26:00;9;;9;;;;;;;
42106;SPS30;27764;50.278;19.032;2023-03-23T08:29:14;10;;10;;;;;;;
42106;SPS30;27764;50.278;19.032;2023-03-23T08:33:03;9;;9;;;;;;;
42106;SPS30;27764;50.278;19.032;2023-03-23T08:36:19;8;;8;;;;;;;
42106;SPS30;27764;50.278;19.032;2023-03-23T08:39:33;8;;8;;;;;;;
42106;SPS30;27764;50.278;19.032;2023-03-23T08:42:47;9;;9;;;;;;;
42106;SPS30;27764;50.278;19.032;2023-03-23T08:46:03;9;;9;;;;;;;
42106;SPS30;27764;50.278;19.032;2023-03-23T08:50:02;9;;9;;;;;;;
42106;SPS30;27764;50.278;19.032;2023-03-23T08:53:17;9;;9;;;;;;;
42106;SPS30;27764;50.278;19.032;2023-03-23T08:56:34;9;;9;;;;;;;
42106;SPS30;27764;50.278;19.032;2023-03-23T08:59:47;8;;8;;;;;;;
42106;SPS30;27764;50.278;19.032;2023-03-23T09:03:01;6;;6;;;;;;;
42106;SPS30;27764;50.278;19.032;2023-03-23T09:06:52;7;;7;;;;;;;
42106;SPS30;27764;50.278;19.032;2023-03-23T09:10:09;7;;7;;;;;;;
42106;SPS30;27764;50.278;19.032;2023-03-23T09:13:24;8;;8;;;;;;;
42106;SPS30;27764;50.278;19.032;2023-03-23T09:16:38;8;;8;;;;;;;
42106;SPS30;27764;50.278;19.032;2023-03-23T09:19:53;8;;8;;;;;;;
42106;SPS30;27764;50.278;19.032;2023-03-23T09:23:39;7;;7;;;;;;;
42106;SPS30;27764;50.278;19.032;2023-03-23T09:26:57;6;;6;;;;;;;
42106;SPS30;27764;50.278;19.032;2023-03-23T09:30:12;6;;6;;;;;;;
42106;SPS30;27764;50.278;19.032;2023-03-23T09:33:27;7;;7;;;;;;;
42106;SPS30;27764;50.278;19.032;2023-03-23T09:36:46;7;;7;;;;;;;
42106;SPS30;27764;50.278;19.032;2023-03-23T09:44:07;6;;6;;;;;;;
42106;SPS30;27764;50.278;19.032;2023-03-23T09:47:32;6;;6;;;;;;;
42106;SPS30;27764;50.278;19.032;2023-03-23T09:55:09;6;;6;;;;;;;
42106;SPS30;27764;50.278;19.032;2023-03-23T09:58:31;6;;6;;;;;;;
42106;SPS30;27764;50.278;19.032;2023-03-23T10:01:57;7;;7;;;;;;;
42106;SPS30;27764;50.278;19.032;2023-03-23T10:05:51;6;;6;;;;;;;
42106;SPS30;27764;50.278;19.032;2023-03-23T10:09:08;6;;6;;;;;;;
42106;SPS30;27764;50.278;19.032;2023-03-23T10:12:31;5;;5;;;;;;;
42106;SPS30;27764;50.278;19.032;2023-03-23T10:15:52;6;;6;;;;;;;
42106;SPS30;27764;50.278;19.032;2023-03-23T10:26:53;5;;5;;;;;;;
42106;SPS30;27764;50.278;19.032;2023-03-23T10:30:56;4;;4;;;;;;;
42106;SPS30;27764;50.278;19.032;2023-03-23T10:34:17;5;;5;;;;;;;
42106;SPS30;27764;50.278;19.032;2023-03-23T10:37:38;4;;4;;;;;;;
42106;SPS30;27764;50.278;19.032;2023-03-23T10:41:00;4;;4;;;;;;;
42106;SPS30;27764;50.278;19.032;2023-03-23T10:44:49;4;;4;;;;;;;
42106;SPS30;27764;50.278;19.032;2023-03-23T10:51:35;4;;4;;;;;;;
42106;SPS30;27764;50.278;19.032;2023-03-23T10:54:57;4;;4;;;;;;;
42106;SPS30;27764;50.278;19.032;2023-03-23T10:58:51;3;;3;;;;;;;
42106;SPS30;27764;50.278;19.032;2023-03-23T11:02:14;3;;3;;;;;;;
42106;SPS30;27764;50.278;19.032;2023-03-23T11:08:57;4;;4;;;;;;;
42106;SPS30;27764;50.278;19.032;2023-03-23T11:12:48;4;;4;;;;;;;
42106;SPS30;27764;50.278;19.032;2023-03-23T11:16:02;3;;3;;;;;;;
42106;SPS30;27764;50.278;19.032;2023-03-23T11:19:21;3;;3;;;;;;;
42106;SPS30;27764;50.278;19.032;2023-03-23T11:22:42;4;;4;;;;;;;
42106;SPS30;27764;50.278;19.032;2023-03-23T11:26:40;4;;4;;;;;;;
42106;SPS30;27764;50.278;19.032;2023-03-23T11:30:40;3;;3;;;;;;;
42106;SPS30;27764;50.278;19.032;2023-03-23T11:33:25;4;;4;;;;;;;
42106;SPS30;27764;50.278;19.032;2023-03-23T11:36:51;4;;4;;;;;;;
42106;SPS30;27764;50.278;19.032;2023-03-23T11:40:49;4;;4;;;;;;;
42106;SPS30;27764;50.278;19.032;2023-03-23T11:44:09;4;;4;;;;;;;
42106;SPS30;27764;50.278;19.032;2023-03-23T11:50:51;5;;5;;;;;;;
42106;SPS30;27764;50.278;19.032;2023-03-23T11:54:38;4;;4;;;;;;;
42106;SPS30;27764;50.278;19.032;2023-03-23T11:58:07;4;;4;;;;;;;
42106;SPS30;27764;50.278;19.032;2023-03-23T12:05:02;3;;3;;;;;;;
42106;SPS30;27764;50.278;19.032;2023-03-23T12:20:06;3;;3;;;;;;;
42106;SPS30;27764;50.278;19.032;2023-03-23T12:23:14;3;;3;;;;;;;
42106;SPS30;27764;50.278;19.032;2023-03-23T12:26:40;4;;4;;;;;;;
42106;SPS30;27764;50.278;19.032;2023-03-23T12:37:42;4;;4;;;;;;;
42106;SPS30;27764;50.278;19.032;2023-03-23T12:41:09;3;;3;;;;;;;
42106;SPS30;27764;50.278;19.032;2023-03-23T12:48:38;4;;4;;;;;;;
42106;SPS30;27764;50.278;19.032;2023-03-23T12:55:30;4;;4;;;;;;;
42106;SPS30;27764;50.278;19.032;2023-03-23T12:58:52;4;;4;;;;;;;
42106;SPS30;27764;50.278;19.032;2023-03-23T13:06:20;5;;5;;;;;;;
42106;SPS30;27764;50.278;19.032;2023-03-23T13:20:41;4;;4;;;;;;;
42106;SPS30;27764;50.278;19.032;2023-03-23T13:24:50;4;;4;;;;;;;
42106;SPS30;27764;50.278;19.032;2023-03-23T13:31:39;4;;4;;;;;;;
42106;SPS30;27764;50.278;19.032;2023-03-23T13:34:54;4;;4;;;;;;;
42106;SPS30;27764;50.278;19.032;2023-03-23T13:42:18;4;;4;;;;;;;
42106;SPS30;27764;50.278;19.032;2023-03-23T13:52:54;3;;3;;;;;;;
42106;SPS30;27764;50.278;19.032;2023-03-23T13:59:35;4;;4;;;;;;;
42106;SPS30;27764;50.278;19.032;2023-03-23T14:10:35;3;;3;;;;;;;
42106;SPS30;27764;50.278;19.032;2023-03-23T14:18:06;4;;4;;;;;;;
42106;SPS30;27764;50.278;19.032;2023-03-23T14:24:47;4;;4;;;;;;;
42106;SPS30;27764;50.278;19.032;2023-03-23T14:28:01;4;;4;;;;;;;
42106;SPS30;27764;50.278;19.032;2023-03-23T14:31:53;4;;4;;;;;;;
42106;SPS30;27764;50.278;19.032;2023-03-23T14:38:37;4;;4;;;;;;;
42106;SPS30;27764;50.278;19.032;2023-03-23T14:41:56;4;;4;;;;;;;
42106;SPS30;27764;50.278;19.032;2023-03-23T14:45:51;5;;5;;;;;;;
42106;SPS30;27764;50.278;19.032;2023-03-23T14:49:10;5;;5;;;;;;;
42106;SPS30;27764;50.278;19.032;2023-03-23T14:52:33;4;;4;;;;;;;
42106;SPS30;27764;50.278;19.032;2023-03-23T14:55:50;4;;4;;;;;;;
42106;SPS30;27764;50.278;19.032;2023-03-23T14:59:48;5;;5;;;;;;;
42106;SPS30;27764;50.278;19.032;2023-03-23T15:03:03;4;;4;;;;;;;
42106;SPS30;27764;50.278;19.032;2023-03-23T15:06:21;5;;5;;;;;;;
42106;SPS30;27764;50.278;19.032;2023-03-23T15:09:40;5;;5;;;;;;;
42106;SPS30;27764;50.278;19.032;2023-03-23T15:13:36;6;;6;;;;;;;
42106;SPS30;27764;50.278;19.032;2023-03-23T15:16:56;5;;5;;;;;;;
42106;SPS30;27764;50.278;19.032;2023-03-23T15:23:35;5;;5;;;;;;;
42106;SPS30;27764;50.278;19.032;2023-03-23T15:27:42;5;;5;;;;;;;
42106;SPS30;27764;50.278;19.032;2023-03-23T15:31:05;5;;5;;;;;;;
42106;SPS30;27764;50.278;19.032;2023-03-23T15:41:48;5;;5;;;;;;;
42106;SPS30;27764;50.278;19.032;2023-03-23T15:52:02;5;;5;;;;;;;
42106;SPS30;27764;50.278;19.032;2023-03-23T15:55:49;5;;5;;;;;;;
42106;SPS30;27764;50.278;19.032;2023-03-23T15:59:03;6;;6;;;;;;;
42106;SPS30;27764;50.278;19.032;2023-03-23T16:02:19;6;;6;;;;;;;
42106;SPS30;27764;50.278;19.032;2023-03-23T16:05:35;6;;6;;;;;;;
42106;SPS30;27764;50.278;19.032;2023-03-23T16:08:49;5;;5;;;;;;;
42106;SPS30;27764;50.278;19.032;2023-03-23T16:12:32;6;;6;;;;;;;
42106;SPS30;27764;50.278;19.032;2023-03-23T16:15:46;6;;6;;;;;;;
42106;SPS30;27764;50.278;19.032;2023-03-23T16:19:01;5;;5;;;;;;;
42106;SPS30;27764;50.278;19.032;2023-03-23T16:22:15;5;;5;;;;;;;
42106;SPS30;27764;50.278;19.032;2023-03-23T16:25:29;6;;6;;;;;;;
42106;SPS30;27764;50.278;19.032;2023-03-23T16:29:17;6;;6;;;;;;;
42106;SPS30;27764;50.278;19.032;2023-03-23T16:32:31;5;;5;;;;;;;
42106;SPS30;27764;50.278;19.032;2023-03-23T16:35:45;4;;4;;;;;;;
42106;SPS30;27764;50.278;19.032;2023-03-23T16:38:59;5;;5;;;;;;;
42106;SPS30;27764;50.278;19.032;2023-03-23T16:42:13;5;;5;;;;;;;
42106;SPS30;27764;50.278;19.032;2023-03-23T16:46:00;5;;5;;;;;;;
42106;SPS30;27764;50.278;19.032;2023-03-23T16:49:15;5;;5;;;;;;;
42106;SPS30;27764;50.278;19.032;2023-03-23T16:52:28;5;;5;;;;;;;
42106;SPS30;27764;50.278;19.032;2023-03-23T16:55:43;7;;7;;;;;;;
42106;SPS30;27764;50.278;19.032;2023-03-23T16:59:00;7;;7;;;;;;;
42106;SPS30;27764;50.278;19.032;2023-03-23T17:02:57;8;;8;;;;;;;
42106;SPS30;27764;50.278;19.032;2023-03-23T17:06:10;7;;7;;;;;;;
42106;SPS30;27764;50.278;19.032;2023-03-23T17:09:25;7;;7;;;;;;;
42106;SPS30;27764;50.278;19.032;2023-03-23T17:12:39;8;;8;;;;;;;
42106;SPS30;27764;50.278;19.032;2023-03-23T17:15:54;7;;7;;;;;;;
42106;SPS30;27764;50.278;19.032;2023-03-23T17:19:40;7;;7;;;;;;;
42106;SPS30;27764;50.278;19.032;2023-03-23T17:22:53;8;;8;;;;;;;
42106;SPS30;27764;50.278;19.032;2023-03-23T17:26:08;8;;8;;;;;;;
42106;SPS30;27764;50.278;19.032;2023-03-23T17:29:22;11;;11;;;;;;;
42106;SPS30;27764;50.278;19.032;2023-03-23T17:32:36;9;;9;;;;;;;
42106;SPS30;27764;50.278;19.032;2023-03-23T17:36:28;12;;12;;;;;;;
42106;SPS30;27764;50.278;19.032;2023-03-23T17:39:42;9;;9;;;;;;;
42106;SPS30;27764;50.278;19.032;2023-03-23T17:42:56;12;;12;;;;;;;
42106;SPS30;27764;50.278;19.032;2023-03-23T17:46:10;10;;10;;;;;;;
42106;SPS30;27764;50.278;19.032;2023-03-23T17:49:25;9;;9;;;;;;;
42106;SPS30;27764;50.278;19.032;2023-03-23T17:53:17;9;;9;;;;;;;
42106;SPS30;27764;50.278;19.032;2023-03-23T17:56:32;11;;11;;;;;;;
42106;SPS30;27764;50.278;19.032;2023-03-23T17:59:45;9;;9;;;;;;;
42106;SPS30;27764;50.278;19.032;2023-03-23T18:02:59;8;;8;;;;;;;
42106;SPS30;27764;50.278;19.032;2023-03-23T18:06:14;7;;7;;;;;;;
42106;SPS30;27764;50.278;19.032;2023-03-23T18:09:59;9;;9;;;;;;;
42106;SPS30;27764;50.278;19.032;2023-03-23T18:13:13;12;;12;;;;;;;
42106;SPS30;27764;50.278;19.032;2023-03-23T18:16:27;9;;9;;;;;;;
42106;SPS30;27764;50.278;19.032;2023-03-23T18:19:42;10;;10;;;;;;;
42106;SPS30;27764;50.278;19.032;2023-03-23T18:22:58;8;;8;;;;;;;
42106;SPS30;27764;50.278;19.032;2023-03-23T18:26:46;11;;11;;;;;;;
42106;SPS30;27764;50.278;19.032;2023-03-23T18:30:00;12;;12;;;;;;;
42106;SPS30;27764;50.278;19.032;2023-03-23T18:33:19;13;;13;;;;;;;
42106;SPS30;27764;50.278;19.032;2023-03-23T18:36:34;14;;14;;;;;;;
42106;SPS30;27764;50.278;19.032;2023-03-23T18:39:48;12;;12;;;;;;;
42106;SPS30;27764;50.278;19.032;2023-03-23T18:43:38;12;;12;;;;;;;
42106;SPS30;27764;50.278;19.032;2023-03-23T18:46:53;12;;12;;;;;;;
42106;SPS30;27764;50.278;19.032;2023-03-23T18:50:07;12;;12;;;;;;;
42106;SPS30;27764;50.278;19.032;2023-03-23T18:53:23;11;;11;;;;;;;
42106;SPS30;27764;50.278;19.032;2023-03-23T18:56:38;12;;12;;;;;;;
42106;SPS30;27764;50.278;19.032;2023-03-23T19:00:27;12;;12;;;;;;;
42106;SPS30;27764;50.278;19.032;2023-03-23T19:03:42;14;;14;;;;;;;
42106;SPS30;27764;50.278;19.032;2023-03-23T19:06:58;12;;12;;;;;;;
42106;SPS30;27764;50.278;19.032;2023-03-23T19:10:16;10;;10;;;;;;;
42106;SPS30;27764;50.278;19.032;2023-03-23T19:14:16;11;;11;;;;;;;
42106;SPS30;27764;50.278;19.032;2023-03-23T19:17:31;16;;16;;;;;;;
42106;SPS30;27764;50.278;19.032;2023-03-23T19:20:45;16;;16;;;;;;;
42106;SPS30;27764;50.278;19.032;2023-03-23T19:24:02;15;;15;;;;;;;
42106;SPS30;27764;50.278;19.032;2023-03-23T19:27:17;16;;16;;;;;;;
42106;SPS30;27764;50.278;19.032;2023-03-23T19:31:01;13;;13;;;;;;;
42106;SPS30;27764;50.278;19.032;2023-03-23T19:34:16;15;;15;;;;;;;
42106;SPS30;27764;50.278;19.032;2023-03-23T19:37:30;20;;20;;;;;;;
42106;SPS30;27764;50.278;19.032;2023-03-23T19:44:09;20;;20;;;;;;;
42106;SPS30;27764;50.278;19.032;2023-03-23T19:47:58;21;;21;;;;;;;
42106;SPS30;27764;50.278;19.032;2023-03-23T19:51:13;18;;18;;;;;;;
42106;SPS30;27764;50.278;19.032;2023-03-23T19:54:30;20;;20;;;;;;;
42106;SPS30;27764;50.278;19.032;2023-03-23T19:57:44;22;;22;;;;;;;
42106;SPS30;27764;50.278;19.032;2023-03-23T20:00:59;21;;21;;;;;;;
42106;SPS30;27764;50.278;19.032;2023-03-23T20:04:45;22;;22;;;;;;;
42106;SPS30;27764;50.278;19.032;2023-03-23T20:07:59;22;;22;;;;;;;
42106;SPS30;27764;50.278;19.032;2023-03-23T20:11:15;19;;19;;;;;;;
42106;SPS30;27764;50.278;19.032;2023-03-23T20:14:30;20;;20;;;;;;;
42106;SPS30;27764;50.278;19.032;2023-03-23T20:17:44;20;;20;;;;;;;
42106;SPS30;27764;50.278;19.032;2023-03-23T20:21:31;22;;22;;;;;;;
42106;SPS30;27764;50.278;19.032;2023-03-23T20:24:46;20;;20;;;;;;;
42106;SPS30;27764;50.278;19.032;2023-03-23T20:28:09;20;;20;;;;;;;
42106;SPS30;27764;50.278;19.032;2023-03-23T20:34:44;19;;19;;;;;;;
42106;SPS30;27764;50.278;19.032;2023-03-23T20:38:38;14;;14;;;;;;;
42106;SPS30;27764;50.278;19.032;2023-03-23T20:41:55;14;;14;;;;;;;
42106;SPS30;27764;50.278;19.032;2023-03-23T20:45:17;14;;14;;;;;;;
42106;SPS30;27764;50.278;19.032;2023-03-23T20:48:33;14;;14;;;;;;;
42106;SPS30;27764;50.278;19.032;2023-03-23T20:52:32;12;;12;;;;;;;
42106;SPS30;27764;50.278;19.032;2023-03-23T20:55:46;11;;11;;;;;;;
42106;SPS30;27764;50.278;19.032;2023-03-23T20:58:59;12;;12;;;;;;;
42106;SPS30;27764;50.278;19.032;2023-03-23T21:02:15;12;;12;;;;;;;
42106;SPS30;27764;50.278;19.032;2023-03-23T21:05:30;12;;12;;;;;;;
42106;SPS30;27764;50.278;19.032;2023-03-23T21:09:16;12;;12;;;;;;;
42106;SPS30;27764;50.278;19.032;2023-03-23T21:12:31;11;;11;;;;;;;
42106;SPS30;27764;50.278;19.032;2023-03-23T21:15:45;11;;11;;;;;;;
42106;SPS30;27764;50.278;19.032;2023-03-23T21:18:59;13;;13;;;;;;;
42106;SPS30;27764;50.278;19.032;2023-03-23T21:22:14;12;;12;;;;;;;
42106;SPS30;27764;50.278;19.032;2023-03-23T21:26:05;12;;12;;;;;;;
42106;SPS30;27764;50.278;19.032;2023-03-23T21:29:23;12;;12;;;;;;;
42106;SPS30;27764;50.278;19.032;2023-03-23T21:32:39;13;;13;;;;;;;
42106;SPS30;27764;50.278;19.032;2023-03-23T21:35:53;13;;13;;;;;;;
42106;SPS30;27764;50.278;19.032;2023-03-23T21:39:07;11;;11;;;;;;;
42106;SPS30;27764;50.278;19.032;2023-03-23T21:42:55;11;;11;;;;;;;
42106;SPS30;27764;50.278;19.032;2023-03-23T21:46:09;10;;10;;;;;;;
42106;SPS30;27764;50.278;19.032;2023-03-23T21:49:30;11;;11;;;;;;;
42106;SPS30;27764;50.278;19.032;2023-03-23T21:52:44;12;;12;;;;;;;
42106;SPS30;27764;50.278;19.032;2023-03-23T22:00:06;9;;9;;;;;;;
42106;SPS30;27764;50.278;19.032;2023-03-23T22:03:27;8;;8;;;;;;;
42106;SPS30;27764;50.278;19.032;2023-03-23T22:06:47;9;;9;;;;;;;
42106;SPS30;27764;50.278;19.032;2023-03-23T22:10:03;9;;9;;;;;;;
42106;SPS30;27764;50.278;19.032;2023-03-23T22:13:56;9;;9;;;;;;;
42106;SPS30;27764;50.278;19.032;2023-03-23T22:17:10;8;;8;;;;;;;
42106;SPS30;27764;50.278;19.032;2023-03-23T22:20:25;9;;9;;;;;;;
42106;SPS30;27764;50.278;19.032;2023-03-23T22:23:39;8;;8;;;;;;;
42106;SPS30;27764;50.278;19.032;2023-03-23T22:26:54;9;;9;;;;;;;
42106;SPS30;27764;50.278;19.032;2023-03-23T22:30:40;8;;8;;;;;;;
42106;SPS30;27764;50.278;19.032;2023-03-23T22:33:55;9;;9;;;;;;;
42106;SPS30;27764;50.278;19.032;2023-03-23T22:37:09;7;;7;;;;;;;
42106;SPS30;27764;50.278;19.032;2023-03-23T22:40:24;7;;7;;;;;;;
42106;SPS30;27764;50.278;19.032;2023-03-23T22:43:38;6;;6;;;;;;;
42106;SPS30;27764;50.278;19.032;2023-03-23T22:47:23;6;;6;;;;;;;
42106;SPS30;27764;50.278;19.032;2023-03-23T22:50:37;7;;7;;;;;;;
42106;SPS30;27764;50.278;19.032;2023-03-23T22:53:54;7;;7;;;;;;;
42106;SPS30;27764;50.278;19.032;2023-03-23T22:57:08;6;;6;;;;;;;
42106;SPS30;27764;50.278;19.032;2023-03-23T23:00:25;6;;6;;;;;;;
42106;SPS30;27764;50.278;19.032;2023-03-23T23:04:09;7;;7;;;;;;;
42106;SPS30;27764;50.278;19.032;2023-03-23T23:07:23;7;;7;;;;;;;
42106;SPS30;27764;50.278;19.032;2023-03-23T23:10:38;7;;7;;;;;;;
42106;SPS30;27764;50.278;19.032;2023-03-23T23:13:53;7;;7;;;;;;;
42106;SPS30;27764;50.278;19.032;2023-03-23T23:17:08;7;;7;;;;;;;
42106;SPS30;27764;50.278;19.032;2023-03-23T23:20:56;7;;7;;;;;;;
42106;SPS30;27764;50.278;19.032;2023-03-23T23:24:12;7;;7;;;;;;;
42106;SPS30;27764;50.278;19.032;2023-03-23T23:27:26;6;;6;;;;;;;
42106;SPS30;27764;50.278;19.032;2023-03-23T23:30:40;7;;7;;;;;;;
42106;SPS30;27764;50.278;19.032;2023-03-23T23:33:56;6;;6;;;;;;;
42106;SPS30;27764;50.278;19.032;2023-03-23T23:37:44;6;;6;;;;;;;
42106;SPS30;27764;50.278;19.032;2023-03-23T23:40:59;6;;6;;;;;;;
42106;SPS30;27764;50.278;19.032;2023-03-23T23:44:14;5;;5;;;;;;;
42106;SPS30;27764;50.278;19.032;2023-03-23T23:47:28;6;;6;;;;;;;
42106;SPS30;27764;50.278;19.032;2023-03-23T23:50:43;6;;6;;;;;;;
42106;SPS30;27764;50.278;19.032;2023-03-23T23:54:28;6;;6;;;;;;;
42106;SPS30;27764;50.278;19.032;2023-03-23T23:57:42;6;;6;;;;;;;
